sensor_id;sensor_type;location;lat;lon;timestamp;temperature;humidity
27314;DHT22;14800;48.174;9.798;2023-12-07T00:01:06;3.20;87.30
27314;DHT22;14800;48.174;9.798;2023-12-07T00:03:31;3.10;87.30
27314;DHT22;14800;48.174;9.798;2023-12-07T00:05:57;3.00;87.50
27314;DHT22;14800;48.174;9.798;2023-12-07T00:08:23;3.00;87.80
27314;DHT22;14800;48.174;9.798;2023-12-07T00:10:48;2.90;87.90
27314;DHT22;14800;48.174;9.798;2023-12-07T00:13:14;2.90;88.10
27314;DHT22;14800;48.174;9.798;2023-12-07T00:15:40;2.90;88.30
27314;DHT22;14800;48.174;9.798;2023-12-07T00:18:05;2.80;88.40
27314;DHT22;14800;48.174;9.798;2023-12-07T00:20:31;2.80;88.60
27314;DHT22;14800;48.174;9.798;2023-12-07T00:22:56;2.80;88.70
27314;DHT22;14800;48.174;9.798;2023-12-07T00:25:22;2.70;88.80
27314;DHT22;14800;48.174;9.798;2023-12-07T00:27:48;2.70;89.10
27314;DHT22;14800;48.174;9.798;2023-12-07T00:30:14;2.70;89.30
27314;DHT22;14800;48.174;9.798;2023-12-07T00:32:40;2.70;89.30
27314;DHT22;14800;48.174;9.798;2023-12-07T00:35:12;2.70;89.50
27314;DHT22;14800;48.174;9.798;2023-12-07T00:37:37;2.70;89.40
27314;DHT22;14800;48.174;9.798;2023-12-07T00:40:04;2.70;89.40
27314;DHT22;14800;48.174;9.798;2023-12-07T00:42:30;2.70;89.30
27314;DHT22;14800;48.174;9.798;2023-12-07T00:44:55;2.70;89.40
27314;DHT22;14800;48.174;9.798;2023-12-07T00:47:21;2.70;89.40
27314;DHT22;14800;48.174;9.798;2023-12-07T00:49:47;2.70;89.70
27314;DHT22;14800;48.174;9.798;2023-12-07T00:52:12;2.70;89.80
27314;DHT22;14800;48.174;9.798;2023-12-07T00:54:38;2.70;89.60
27314;DHT22;14800;48.174;9.798;2023-12-07T00:57:07;2.70;89.30
27314;DHT22;14800;48.174;9.798;2023-12-07T00:59:32;2.70;89.30
27314;DHT22;14800;48.174;9.798;2023-12-07T01:02:05;2.70;89.30
27314;DHT22;14800;48.174;9.798;2023-12-07T01:04:31;2.70;89.40
27314;DHT22;14800;48.174;9.798;2023-12-07T01:07:00;2.80;89.50
27314;DHT22;14800;48.174;9.798;2023-12-07T01:09:28;2.80;89.40
27314;DHT22;14800;48.174;9.798;2023-12-07T01:11:53;2.80;89.30
27314;DHT22;14800;48.174;9.798;2023-12-07T01:14:19;2.80;89.30
27314;DHT22;14800;48.174;9.798;2023-12-07T01:16:44;2.80;89.40
27314;DHT22;14800;48.174;9.798;2023-12-07T01:19:10;2.80;89.20
27314;DHT22;14800;48.174;9.798;2023-12-07T01:21:40;2.90;89.30
27314;DHT22;14800;48.174;9.798;2023-12-07T01:24:05;2.90;89.00
27314;DHT22;14800;48.174;9.798;2023-12-07T01:26:31;2.90;88.90
27314;DHT22;14800;48.174;9.798;2023-12-07T01:28:57;2.90;88.90
27314;DHT22;14800;48.174;9.798;2023-12-07T01:31:23;2.90;88.90
27314;DHT22;14800;48.174;9.798;2023-12-07T01:33:48;2.90;89.10
27314;DHT22;14800;48.174;9.798;2023-12-07T01:36:14;2.90;89.10
27314;DHT22;14800;48.174;9.798;2023-12-07T01:38:39;2.90;89.10
27314;DHT22;14800;48.174;9.798;2023-12-07T01:41:05;2.90;89.10
27314;DHT22;14800;48.174;9.798;2023-12-07T01:43:30;3.00;89.10
27314;DHT22;14800;48.174;9.798;2023-12-07T01:46:00;2.90;89.10
27314;DHT22;14800;48.174;9.798;2023-12-07T01:48:26;3.00;89.10
27314;DHT22;14800;48.174;9.798;2023-12-07T01:50:54;3.00;89.10
27314;DHT22;14800;48.174;9.798;2023-12-07T01:53:21;3.10;89.20
27314;DHT22;14800;48.174;9.798;2023-12-07T01:55:48;3.00;89.10
27314;DHT22;14800;48.174;9.798;2023-12-07T01:58:14;3.00;89.30
27314;DHT22;14800;48.174;9.798;2023-12-07T02:00:41;3.00;89.50
27314;DHT22;14800;48.174;9.798;2023-12-07T02:03:07;3.00;89.40
27314;DHT22;14800;48.174;9.798;2023-12-07T02:05:33;3.00;89.30
27314;DHT22;14800;48.174;9.798;2023-12-07T02:07:59;3.00;89.20
27314;DHT22;14800;48.174;9.798;2023-12-07T02:10:25;3.00;89.00
27314;DHT22;14800;48.174;9.798;2023-12-07T02:12:51;3.00;88.90
27314;DHT22;14800;48.174;9.798;2023-12-07T02:15:18;3.00;88.80
27314;DHT22;14800;48.174;9.798;2023-12-07T02:23:15;3.10;88.60
27314;DHT22;14800;48.174;9.798;2023-12-07T02:25:51;3.00;88.40
27314;DHT22;14800;48.174;9.798;2023-12-07T02:28:17;3.00;88.10
27314;DHT22;14800;48.174;9.798;2023-12-07T02:30:43;3.00;87.70
27314;DHT22;14800;48.174;9.798;2023-12-07T02:33:09;3.00;87.70
27314;DHT22;14800;48.174;9.798;2023-12-07T02:35:36;2.90;87.70
27314;DHT22;14800;48.174;9.798;2023-12-07T02:38:02;2.90;87.70
27314;DHT22;14800;48.174;9.798;2023-12-07T02:40:28;2.80;87.70
27314;DHT22;14800;48.174;9.798;2023-12-07T02:42:56;2.80;87.40
27314;DHT22;14800;48.174;9.798;2023-12-07T02:45:22;2.70;87.50
27314;DHT22;14800;48.174;9.798;2023-12-07T02:47:47;2.60;87.70
27314;DHT22;14800;48.174;9.798;2023-12-07T02:50:13;2.60;88.20
27314;DHT22;14800;48.174;9.798;2023-12-07T02:52:39;2.60;88.40
27314;DHT22;14800;48.174;9.798;2023-12-07T02:55:05;2.50;88.50
27314;DHT22;14800;48.174;9.798;2023-12-07T02:57:31;2.50;88.70
27314;DHT22;14800;48.174;9.798;2023-12-07T02:59:59;2.50;88.70
27314;DHT22;14800;48.174;9.798;2023-12-07T03:02:25;2.50;88.90
27314;DHT22;14800;48.174;9.798;2023-12-07T03:04:51;2.50;89.00
27314;DHT22;14800;48.174;9.798;2023-12-07T03:07:16;2.60;88.90
27314;DHT22;14800;48.174;9.798;2023-12-07T03:09:42;2.60;88.60
27314;DHT22;14800;48.174;9.798;2023-12-07T03:12:08;2.60;88.20
27314;DHT22;14800;48.174;9.798;2023-12-07T03:14:33;2.60;88.30
27314;DHT22;14800;48.174;9.798;2023-12-07T03:16:59;2.60;88.50
27314;DHT22;14800;48.174;9.798;2023-12-07T03:19:24;2.60;88.60
27314;DHT22;14800;48.174;9.798;2023-12-07T03:21:50;2.60;88.60
27314;DHT22;14800;48.174;9.798;2023-12-07T03:24:16;2.60;88.60
27314;DHT22;14800;48.174;9.798;2023-12-07T03:26:42;2.60;88.30
27314;DHT22;14800;48.174;9.798;2023-12-07T03:29:07;2.60;88.10
27314;DHT22;14800;48.174;9.798;2023-12-07T03:31:33;2.60;88.10
27314;DHT22;14800;48.174;9.798;2023-12-07T03:33:59;2.60;88.20
27314;DHT22;14800;48.174;9.798;2023-12-07T03:36:26;2.60;88.20
27314;DHT22;14800;48.174;9.798;2023-12-07T03:38:52;2.60;87.90
27314;DHT22;14800;48.174;9.798;2023-12-07T03:41:18;2.60;87.90
27314;DHT22;14800;48.174;9.798;2023-12-07T03:43:44;2.60;87.80
27314;DHT22;14800;48.174;9.798;2023-12-07T03:46:10;2.60;87.70
27314;DHT22;14800;48.174;9.798;2023-12-07T03:48:35;2.60;87.40
27314;DHT22;14800;48.174;9.798;2023-12-07T03:51:01;2.60;87.20
27314;DHT22;14800;48.174;9.798;2023-12-07T03:53:27;2.60;87.30
27314;DHT22;14800;48.174;9.798;2023-12-07T03:55:53;2.60;87.50
27314;DHT22;14800;48.174;9.798;2023-12-07T03:58:19;2.50;87.50
27314;DHT22;14800;48.174;9.798;2023-12-07T04:00:45;2.50;87.30
27314;DHT22;14800;48.174;9.798;2023-12-07T04:03:11;2.50;87.40
27314;DHT22;14800;48.174;9.798;2023-12-07T04:05:37;2.50;87.60
27314;DHT22;14800;48.174;9.798;2023-12-07T04:08:03;2.50;87.50
27314;DHT22;14800;48.174;9.798;2023-12-07T04:10:30;2.40;87.70
27314;DHT22;14800;48.174;9.798;2023-12-07T04:12:56;2.40;87.70
27314;DHT22;14800;48.174;9.798;2023-12-07T04:15:22;2.40;87.60
27314;DHT22;14800;48.174;9.798;2023-12-07T04:17:48;2.40;87.60
27314;DHT22;14800;48.174;9.798;2023-12-07T04:20:14;2.40;88.60
27314;DHT22;14800;48.174;9.798;2023-12-07T04:22:40;2.30;87.60
27314;DHT22;14800;48.174;9.798;2023-12-07T04:25:08;2.30;87.60
27314;DHT22;14800;48.174;9.798;2023-12-07T04:27:34;2.30;87.60
27314;DHT22;14800;48.174;9.798;2023-12-07T04:30:00;2.30;87.70
27314;DHT22;14800;48.174;9.798;2023-12-07T04:32:26;2.30;87.80
27314;DHT22;14800;48.174;9.798;2023-12-07T04:34:51;2.30;87.80
27314;DHT22;14800;48.174;9.798;2023-12-07T04:37:18;2.30;87.80
27314;DHT22;14800;48.174;9.798;2023-12-07T04:39:43;2.30;87.70
27314;DHT22;14800;48.174;9.798;2023-12-07T04:42:12;2.30;87.70
27314;DHT22;14800;48.174;9.798;2023-12-07T04:44:37;2.30;87.60
27314;DHT22;14800;48.174;9.798;2023-12-07T04:47:03;2.30;87.60
27314;DHT22;14800;48.174;9.798;2023-12-07T04:49:29;2.30;87.70
27314;DHT22;14800;48.174;9.798;2023-12-07T04:51:54;2.30;87.80
27314;DHT22;14800;48.174;9.798;2023-12-07T04:54:23;2.30;87.80
27314;DHT22;14800;48.174;9.798;2023-12-07T04:56:49;2.30;87.70
27314;DHT22;14800;48.174;9.798;2023-12-07T04:59:14;2.30;87.50
27314;DHT22;14800;48.174;9.798;2023-12-07T05:01:40;2.30;87.50
27314;DHT22;14800;48.174;9.798;2023-12-07T05:04:05;2.20;88.20
27314;DHT22;14800;48.174;9.798;2023-12-07T05:06:31;2.20;87.90
27314;DHT22;14800;48.174;9.798;2023-12-07T05:08:57;2.20;86.90
27314;DHT22;14800;48.174;9.798;2023-12-07T05:11:23;2.10;86.70
27314;DHT22;14800;48.174;9.798;2023-12-07T05:13:48;2.10;86.80
27314;DHT22;14800;48.174;9.798;2023-12-07T05:16:14;2.10;86.80
27314;DHT22;14800;48.174;9.798;2023-12-07T05:18:40;2.10;87.00
27314;DHT22;14800;48.174;9.798;2023-12-07T05:21:06;2.00;87.10
27314;DHT22;14800;48.174;9.798;2023-12-07T05:23:32;2.10;87.20
27314;DHT22;14800;48.174;9.798;2023-12-07T05:25:57;2.10;87.20
27314;DHT22;14800;48.174;9.798;2023-12-07T05:28:23;2.00;87.20
27314;DHT22;14800;48.174;9.798;2023-12-07T05:30:49;2.00;87.20
27314;DHT22;14800;48.174;9.798;2023-12-07T05:33:15;2.10;87.20
27314;DHT22;14800;48.174;9.798;2023-12-07T05:35:41;2.00;86.90
27314;DHT22;14800;48.174;9.798;2023-12-07T05:38:06;2.10;86.80
27314;DHT22;14800;48.174;9.798;2023-12-07T05:40:32;2.00;86.40
27314;DHT22;14800;48.174;9.798;2023-12-07T05:42:59;2.00;86.40
27314;DHT22;14800;48.174;9.798;2023-12-07T05:45:24;2.00;86.30
27314;DHT22;14800;48.174;9.798;2023-12-07T05:47:51;2.00;86.30
27314;DHT22;14800;48.174;9.798;2023-12-07T05:50:17;2.00;86.40
27314;DHT22;14800;48.174;9.798;2023-12-07T05:52:42;1.90;85.90
27314;DHT22;14800;48.174;9.798;2023-12-07T05:55:08;1.90;85.40
27314;DHT22;14800;48.174;9.798;2023-12-07T05:57:34;1.80;85.40
27314;DHT22;14800;48.174;9.798;2023-12-07T05:59:59;1.80;85.60
27314;DHT22;14800;48.174;9.798;2023-12-07T06:02:25;1.80;85.30
27314;DHT22;14800;48.174;9.798;2023-12-07T06:04:50;1.70;85.10
27314;DHT22;14800;48.174;9.798;2023-12-07T06:07:16;1.70;84.70
27314;DHT22;14800;48.174;9.798;2023-12-07T06:09:42;1.60;83.90
27314;DHT22;14800;48.174;9.798;2023-12-07T06:12:07;1.50;83.50
27314;DHT22;14800;48.174;9.798;2023-12-07T06:14:33;1.40;83.20
27314;DHT22;14800;48.174;9.798;2023-12-07T06:16:58;1.30;83.10
27314;DHT22;14800;48.174;9.798;2023-12-07T06:19:25;1.20;83.30
27314;DHT22;14800;48.174;9.798;2023-12-07T06:21:50;1.10;83.90
27314;DHT22;14800;48.174;9.798;2023-12-07T06:24:16;1.00;83.90
27314;DHT22;14800;48.174;9.798;2023-12-07T06:26:42;1.00;84.00
27314;DHT22;14800;48.174;9.798;2023-12-07T06:29:07;0.90;84.20
27314;DHT22;14800;48.174;9.798;2023-12-07T06:31:33;0.90;84.60
27314;DHT22;14800;48.174;9.798;2023-12-07T06:33:59;0.90;84.80
27314;DHT22;14800;48.174;9.798;2023-12-07T06:36:28;0.90;84.70
27314;DHT22;14800;48.174;9.798;2023-12-07T06:38:54;0.90;84.70
27314;DHT22;14800;48.174;9.798;2023-12-07T06:41:23;0.80;84.80
27314;DHT22;14800;48.174;9.798;2023-12-07T06:43:51;0.80;85.00
27314;DHT22;14800;48.174;9.798;2023-12-07T06:46:19;0.80;84.70
27314;DHT22;14800;48.174;9.798;2023-12-07T06:48:45;0.80;84.60
27314;DHT22;14800;48.174;9.798;2023-12-07T06:51:11;0.70;84.70
27314;DHT22;14800;48.174;9.798;2023-12-07T06:53:37;0.70;84.50
27314;DHT22;14800;48.174;9.798;2023-12-07T06:56:03;0.70;84.20
27314;DHT22;14800;48.174;9.798;2023-12-07T06:58:29;0.60;84.20
27314;DHT22;14800;48.174;9.798;2023-12-07T07:00:54;0.50;84.50
27314;DHT22;14800;48.174;9.798;2023-12-07T07:03:20;0.40;85.00
27314;DHT22;14800;48.174;9.798;2023-12-07T07:05:50;0.40;85.40
27314;DHT22;14800;48.174;9.798;2023-12-07T07:08:15;0.40;85.60
27314;DHT22;14800;48.174;9.798;2023-12-07T07:10:41;0.30;85.40
27314;DHT22;14800;48.174;9.798;2023-12-07T07:13:07;0.30;85.30
27314;DHT22;14800;48.174;9.798;2023-12-07T07:15:32;0.20;85.50
27314;DHT22;14800;48.174;9.798;2023-12-07T07:17:58;0.10;85.60
27314;DHT22;14800;48.174;9.798;2023-12-07T07:20:24;0.00;86.50
27314;DHT22;14800;48.174;9.798;2023-12-07T07:22:50;0.00;86.00
27314;DHT22;14800;48.174;9.798;2023-12-07T07:25:15;0.00;86.50
27314;DHT22;14800;48.174;9.798;2023-12-07T07:27:42;-0.10;86.80
27314;DHT22;14800;48.174;9.798;2023-12-07T07:30:07;-0.10;87.00
27314;DHT22;14800;48.174;9.798;2023-12-07T07:32:34;0.00;87.20
27314;DHT22;14800;48.174;9.798;2023-12-07T07:34:59;0.00;87.30
27314;DHT22;14800;48.174;9.798;2023-12-07T07:37:25;0.00;87.50
27314;DHT22;14800;48.174;9.798;2023-12-07T07:39:51;-0.10;87.50
27314;DHT22;14800;48.174;9.798;2023-12-07T07:42:16;0.00;87.60
27314;DHT22;14800;48.174;9.798;2023-12-07T07:44:42;0.10;87.50
27314;DHT22;14800;48.174;9.798;2023-12-07T07:47:07;0.10;87.20
27314;DHT22;14800;48.174;9.798;2023-12-07T07:49:33;0.10;87.10
27314;DHT22;14800;48.174;9.798;2023-12-07T07:51:59;0.10;87.00
27314;DHT22;14800;48.174;9.798;2023-12-07T07:54:24;0.10;87.00
27314;DHT22;14800;48.174;9.798;2023-12-07T07:56:51;0.10;86.80
27314;DHT22;14800;48.174;9.798;2023-12-07T07:59:16;0.10;86.50
27314;DHT22;14800;48.174;9.798;2023-12-07T08:01:42;0.00;86.30
27314;DHT22;14800;48.174;9.798;2023-12-07T08:04:12;-0.10;86.30
27314;DHT22;14800;48.174;9.798;2023-12-07T08:06:38;-0.10;86.20
27314;DHT22;14800;48.174;9.798;2023-12-07T08:09:04;-0.20;86.00
27314;DHT22;14800;48.174;9.798;2023-12-07T08:11:32;-0.30;86.00
27314;DHT22;14800;48.174;9.798;2023-12-07T08:13:58;-0.40;86.20
27314;DHT22;14800;48.174;9.798;2023-12-07T08:16:24;-0.40;87.30
27314;DHT22;14800;48.174;9.798;2023-12-07T08:18:52;-0.50;87.00
27314;DHT22;14800;48.174;9.798;2023-12-07T08:21:20;-0.50;87.30
27314;DHT22;14800;48.174;9.798;2023-12-07T08:23:48;-0.50;87.70
27314;DHT22;14800;48.174;9.798;2023-12-07T08:26:14;-0.50;88.10
27314;DHT22;14800;48.174;9.798;2023-12-07T08:28:43;-0.50;88.20
27314;DHT22;14800;48.174;9.798;2023-12-07T08:31:09;-0.40;88.20
27314;DHT22;14800;48.174;9.798;2023-12-07T08:33:37;-0.40;87.90
27314;DHT22;14800;48.174;9.798;2023-12-07T08:36:05;-0.50;87.70
27314;DHT22;14800;48.174;9.798;2023-12-07T08:38:31;-0.50;88.70
27314;DHT22;14800;48.174;9.798;2023-12-07T08:40:57;-0.40;87.90
27314;DHT22;14800;48.174;9.798;2023-12-07T08:43:23;-0.40;87.80
27314;DHT22;14800;48.174;9.798;2023-12-07T08:45:52;-0.40;87.60
27314;DHT22;14800;48.174;9.798;2023-12-07T08:50:53;-0.50;87.20
27314;DHT22;14800;48.174;9.798;2023-12-07T08:53:19;-0.60;87.00
27314;DHT22;14800;48.174;9.798;2023-12-07T08:55:44;-0.60;87.10
27314;DHT22;14800;48.174;9.798;2023-12-07T08:58:10;-0.60;87.50
27314;DHT22;14800;48.174;9.798;2023-12-07T09:00:38;-0.70;87.80
27314;DHT22;14800;48.174;9.798;2023-12-07T09:03:04;-0.70;88.20
27314;DHT22;14800;48.174;9.798;2023-12-07T09:05:33;-0.60;88.40
27314;DHT22;14800;48.174;9.798;2023-12-07T09:08:01;-0.60;88.40
27314;DHT22;14800;48.174;9.798;2023-12-07T09:10:26;-0.60;88.50
27314;DHT22;14800;48.174;9.798;2023-12-07T09:12:53;-0.60;88.50
27314;DHT22;14800;48.174;9.798;2023-12-07T09:15:21;-0.60;88.50
27314;DHT22;14800;48.174;9.798;2023-12-07T09:17:50;-0.60;88.60
27314;DHT22;14800;48.174;9.798;2023-12-07T09:20:20;-0.60;88.70
27314;DHT22;14800;48.174;9.798;2023-12-07T09:22:46;-0.60;88.80
27314;DHT22;14800;48.174;9.798;2023-12-07T09:25:17;-0.60;88.90
27314;DHT22;14800;48.174;9.798;2023-12-07T09:27:43;-0.50;89.10
27314;DHT22;14800;48.174;9.798;2023-12-07T09:30:12;-0.50;89.10
27314;DHT22;14800;48.174;9.798;2023-12-07T09:32:39;-0.50;89.20
27314;DHT22;14800;48.174;9.798;2023-12-07T09:35:05;-0.40;89.50
27314;DHT22;14800;48.174;9.798;2023-12-07T09:37:36;-0.40;89.80
27314;DHT22;14800;48.174;9.798;2023-12-07T09:40:02;-0.30;89.90
27314;DHT22;14800;48.174;9.798;2023-12-07T09:42:33;-0.20;89.80
27314;DHT22;14800;48.174;9.798;2023-12-07T09:44:59;-0.20;89.80
27314;DHT22;14800;48.174;9.798;2023-12-07T09:47:26;-0.10;89.80
27314;DHT22;14800;48.174;9.798;2023-12-07T09:49:53;0.00;89.90
27314;DHT22;14800;48.174;9.798;2023-12-07T09:52:19;0.10;89.90
27314;DHT22;14800;48.174;9.798;2023-12-07T09:54:47;0.10;89.80
27314;DHT22;14800;48.174;9.798;2023-12-07T09:57:12;0.20;89.70
27314;DHT22;14800;48.174;9.798;2023-12-07T09:59:40;0.30;89.60
27314;DHT22;14800;48.174;9.798;2023-12-07T10:02:06;0.30;89.70
27314;DHT22;14800;48.174;9.798;2023-12-07T10:04:33;0.40;89.70
27314;DHT22;14800;48.174;9.798;2023-12-07T10:06:58;0.50;89.60
27314;DHT22;14800;48.174;9.798;2023-12-07T10:09:24;0.50;89.40
27314;DHT22;14800;48.174;9.798;2023-12-07T10:12:01;0.60;89.40
27314;DHT22;14800;48.174;9.798;2023-12-07T10:14:27;0.60;89.60
27314;DHT22;14800;48.174;9.798;2023-12-07T10:16:54;0.70;89.70
27314;DHT22;14800;48.174;9.798;2023-12-07T10:19:24;0.70;89.60
27314;DHT22;14800;48.174;9.798;2023-12-07T10:21:51;0.80;89.40
27314;DHT22;14800;48.174;9.798;2023-12-07T10:24:18;0.80;89.30
27314;DHT22;14800;48.174;9.798;2023-12-07T10:26:48;0.80;89.10
27314;DHT22;14800;48.174;9.798;2023-12-07T10:29:17;0.90;89.10
27314;DHT22;14800;48.174;9.798;2023-12-07T10:31:44;0.90;89.00
27314;DHT22;14800;48.174;9.798;2023-12-07T10:34:12;0.90;89.00
27314;DHT22;14800;48.174;9.798;2023-12-07T10:36:38;1.00;89.10
27314;DHT22;14800;48.174;9.798;2023-12-07T10:39:03;1.00;89.20
27314;DHT22;14800;48.174;9.798;2023-12-07T10:41:33;1.00;89.30
27314;DHT22;14800;48.174;9.798;2023-12-07T10:44:04;1.10;89.40
27314;DHT22;14800;48.174;9.798;2023-12-07T10:46:32;1.10;89.50
27314;DHT22;14800;48.174;9.798;2023-12-07T10:49:04;1.20;89.60
27314;DHT22;14800;48.174;9.798;2023-12-07T10:51:43;1.20;89.50
27314;DHT22;14800;48.174;9.798;2023-12-07T10:54:15;1.30;89.60
27314;DHT22;14800;48.174;9.798;2023-12-07T10:56:45;1.30;89.70
27314;DHT22;14800;48.174;9.798;2023-12-07T10:59:12;1.40;89.70
27314;DHT22;14800;48.174;9.798;2023-12-07T11:01:41;1.50;89.80
27314;DHT22;14800;48.174;9.798;2023-12-07T11:04:12;1.50;89.90
27314;DHT22;14800;48.174;9.798;2023-12-07T11:06:39;1.60;90.00
27314;DHT22;14800;48.174;9.798;2023-12-07T11:09:15;1.70;90.10
27314;DHT22;14800;48.174;9.798;2023-12-07T11:11:47;1.80;90.20
27314;DHT22;14800;48.174;9.798;2023-12-07T11:14:15;1.90;90.20
27314;DHT22;14800;48.174;9.798;2023-12-07T11:16:48;1.90;90.10
27314;DHT22;14800;48.174;9.798;2023-12-07T11:22:12;2.10;89.60
27314;DHT22;14800;48.174;9.798;2023-12-07T11:24:51;2.20;89.60
27314;DHT22;14800;48.174;9.798;2023-12-07T11:27:17;2.20;89.60
27314;DHT22;14800;48.174;9.798;2023-12-07T11:29:45;2.30;89.70
27314;DHT22;14800;48.174;9.798;2023-12-07T11:32:11;2.30;89.20
27314;DHT22;14800;48.174;9.798;2023-12-07T11:34:41;2.40;88.60
27314;DHT22;14800;48.174;9.798;2023-12-07T11:37:14;2.40;88.40
27314;DHT22;14800;48.174;9.798;2023-12-07T11:39:41;2.50;88.40
27314;DHT22;14800;48.174;9.798;2023-12-07T11:42:11;2.40;87.90
27314;DHT22;14800;48.174;9.798;2023-12-07T11:44:38;2.40;86.70
27314;DHT22;14800;48.174;9.798;2023-12-07T11:47:05;2.40;87.30
27314;DHT22;14800;48.174;9.798;2023-12-07T11:49:31;2.40;87.50
27314;DHT22;14800;48.174;9.798;2023-12-07T11:52:00;2.40;87.90
27314;DHT22;14800;48.174;9.798;2023-12-07T11:54:26;2.50;88.10
27314;DHT22;14800;48.174;9.798;2023-12-07T11:56:56;2.50;88.20
27314;DHT22;14800;48.174;9.798;2023-12-07T11:59:24;2.60;88.20
27314;DHT22;14800;48.174;9.798;2023-12-07T12:01:53;2.60;87.90
27314;DHT22;14800;48.174;9.798;2023-12-07T12:04:18;2.70;87.70
27314;DHT22;14800;48.174;9.798;2023-12-07T12:06:44;2.70;88.60
27314;DHT22;14800;48.174;9.798;2023-12-07T12:09:14;2.70;87.50
27314;DHT22;14800;48.174;9.798;2023-12-07T12:11:46;2.70;87.00
27314;DHT22;14800;48.174;9.798;2023-12-07T12:14:18;2.80;86.60
27314;DHT22;14800;48.174;9.798;2023-12-07T12:16:45;2.80;86.80
27314;DHT22;14800;48.174;9.798;2023-12-07T12:19:10;2.80;87.10
27314;DHT22;14800;48.174;9.798;2023-12-07T12:21:36;2.80;86.90
27314;DHT22;14800;48.174;9.798;2023-12-07T12:24:07;2.80;87.00
27314;DHT22;14800;48.174;9.798;2023-12-07T12:26:39;2.80;87.00
27314;DHT22;14800;48.174;9.798;2023-12-07T12:29:07;2.80;87.20
27314;DHT22;14800;48.174;9.798;2023-12-07T12:31:34;2.90;87.20
27314;DHT22;14800;48.174;9.798;2023-12-07T12:34:05;2.90;87.20
27314;DHT22;14800;48.174;9.798;2023-12-07T12:36:32;2.90;86.80
27314;DHT22;14800;48.174;9.798;2023-12-07T12:38:58;3.00;86.80
27314;DHT22;14800;48.174;9.798;2023-12-07T12:41:24;2.90;86.60
27314;DHT22;14800;48.174;9.798;2023-12-07T12:43:51;2.90;86.60
27314;DHT22;14800;48.174;9.798;2023-12-07T12:46:18;2.90;86.40
27314;DHT22;14800;48.174;9.798;2023-12-07T12:48:57;2.90;86.50
27314;DHT22;14800;48.174;9.798;2023-12-07T12:51:25;2.90;86.40
27314;DHT22;14800;48.174;9.798;2023-12-07T12:53:52;2.90;86.50
27314;DHT22;14800;48.174;9.798;2023-12-07T12:56:19;3.00;86.50
27314;DHT22;14800;48.174;9.798;2023-12-07T12:58:52;2.90;86.50
27314;DHT22;14800;48.174;9.798;2023-12-07T13:01:18;2.90;86.30
27314;DHT22;14800;48.174;9.798;2023-12-07T13:03:46;3.00;86.60
27314;DHT22;14800;48.174;9.798;2023-12-07T13:06:13;2.90;86.80
27314;DHT22;14800;48.174;9.798;2023-12-07T13:08:47;3.00;86.80
27314;DHT22;14800;48.174;9.798;2023-12-07T13:11:19;3.00;86.80
27314;DHT22;14800;48.174;9.798;2023-12-07T13:13:46;3.00;86.60
27314;DHT22;14800;48.174;9.798;2023-12-07T13:16:16;3.00;86.60
27314;DHT22;14800;48.174;9.798;2023-12-07T13:18:42;3.10;86.50
27314;DHT22;14800;48.174;9.798;2023-12-07T13:21:08;3.10;86.50
27314;DHT22;14800;48.174;9.798;2023-12-07T13:23:35;3.10;86.10
27314;DHT22;14800;48.174;9.798;2023-12-07T13:26:01;3.10;86.00
27314;DHT22;14800;48.174;9.798;2023-12-07T13:28:26;3.10;86.10
27314;DHT22;14800;48.174;9.798;2023-12-07T13:30:52;3.10;86.40
27314;DHT22;14800;48.174;9.798;2023-12-07T13:33:25;3.10;86.40
27314;DHT22;14800;48.174;9.798;2023-12-07T13:35:51;3.10;86.40
27314;DHT22;14800;48.174;9.798;2023-12-07T13:38:17;3.20;86.30
27314;DHT22;14800;48.174;9.798;2023-12-07T13:40:45;3.20;86.10
27314;DHT22;14800;48.174;9.798;2023-12-07T13:43:12;3.20;86.20
27314;DHT22;14800;48.174;9.798;2023-12-07T13:45:38;3.20;86.30
27314;DHT22;14800;48.174;9.798;2023-12-07T13:48:03;3.30;86.10
27314;DHT22;14800;48.174;9.798;2023-12-07T13:50:29;3.40;85.80
27314;DHT22;14800;48.174;9.798;2023-12-07T13:52:55;3.40;85.70
27314;DHT22;14800;48.174;9.798;2023-12-07T13:55:20;3.40;85.50
27314;DHT22;14800;48.174;9.798;2023-12-07T13:57:46;3.40;85.20
27314;DHT22;14800;48.174;9.798;2023-12-07T14:00:12;3.40;85.00
27314;DHT22;14800;48.174;9.798;2023-12-07T14:02:39;3.50;84.90
27314;DHT22;14800;48.174;9.798;2023-12-07T14:05:04;3.50;84.90
27314;DHT22;14800;48.174;9.798;2023-12-07T14:07:30;3.50;84.50
27314;DHT22;14800;48.174;9.798;2023-12-07T14:09:56;3.40;84.40
27314;DHT22;14800;48.174;9.798;2023-12-07T14:12:22;3.50;84.60
27314;DHT22;14800;48.174;9.798;2023-12-07T14:14:49;3.40;84.50
27314;DHT22;14800;48.174;9.798;2023-12-07T14:17:15;3.40;84.50
27314;DHT22;14800;48.174;9.798;2023-12-07T14:19:42;3.40;84.50
27314;DHT22;14800;48.174;9.798;2023-12-07T14:22:08;3.40;84.40
27314;DHT22;14800;48.174;9.798;2023-12-07T14:24:36;3.40;84.40
27314;DHT22;14800;48.174;9.798;2023-12-07T14:27:02;3.40;84.30
27314;DHT22;14800;48.174;9.798;2023-12-07T14:29:30;3.40;84.40
27314;DHT22;14800;48.174;9.798;2023-12-07T14:31:57;3.40;84.40
27314;DHT22;14800;48.174;9.798;2023-12-07T14:34:24;3.40;84.50
27314;DHT22;14800;48.174;9.798;2023-12-07T14:36:50;3.40;84.50
27314;DHT22;14800;48.174;9.798;2023-12-07T14:39:16;3.40;84.40
27314;DHT22;14800;48.174;9.798;2023-12-07T14:41:45;3.40;84.50
27314;DHT22;14800;48.174;9.798;2023-12-07T14:44:15;3.40;84.50
27314;DHT22;14800;48.174;9.798;2023-12-07T14:46:46;3.40;84.60
27314;DHT22;14800;48.174;9.798;2023-12-07T14:49:12;3.40;84.20
27314;DHT22;14800;48.174;9.798;2023-12-07T14:51:38;3.40;84.40
27314;DHT22;14800;48.174;9.798;2023-12-07T14:54:05;3.40;84.00
27314;DHT22;14800;48.174;9.798;2023-12-07T14:56:30;3.40;83.40
27314;DHT22;14800;48.174;9.798;2023-12-07T14:58:59;3.40;83.20
27314;DHT22;14800;48.174;9.798;2023-12-07T15:01:25;3.30;83.00
27314;DHT22;14800;48.174;9.798;2023-12-07T15:03:51;3.30;82.80
27314;DHT22;14800;48.174;9.798;2023-12-07T15:06:16;3.30;82.60
27314;DHT22;14800;48.174;9.798;2023-12-07T15:08:43;3.20;82.60
27314;DHT22;14800;48.174;9.798;2023-12-07T15:11:09;3.20;82.50
27314;DHT22;14800;48.174;9.798;2023-12-07T15:13:35;3.10;82.40
27314;DHT22;14800;48.174;9.798;2023-12-07T15:16:01;3.10;82.50
27314;DHT22;14800;48.174;9.798;2023-12-07T15:18:29;3.00;82.50
27314;DHT22;14800;48.174;9.798;2023-12-07T15:20:56;3.00;82.40
27314;DHT22;14800;48.174;9.798;2023-12-07T15:23:22;3.00;82.30
27314;DHT22;14800;48.174;9.798;2023-12-07T15:25:48;2.90;82.10
27314;DHT22;14800;48.174;9.798;2023-12-07T15:28:13;2.80;82.00
27314;DHT22;14800;48.174;9.798;2023-12-07T15:30:40;2.80;82.00
27314;DHT22;14800;48.174;9.798;2023-12-07T15:33:05;2.70;81.80
27314;DHT22;14800;48.174;9.798;2023-12-07T15:35:32;2.60;82.00
27314;DHT22;14800;48.174;9.798;2023-12-07T15:37:57;2.60;82.30
27314;DHT22;14800;48.174;9.798;2023-12-07T15:40:23;2.50;82.80
27314;DHT22;14800;48.174;9.798;2023-12-07T15:42:49;2.50;82.90
27314;DHT22;14800;48.174;9.798;2023-12-07T15:45:15;2.50;82.80
27314;DHT22;14800;48.174;9.798;2023-12-07T15:47:40;2.50;83.00
27314;DHT22;14800;48.174;9.798;2023-12-07T15:50:06;2.50;82.90
27314;DHT22;14800;48.174;9.798;2023-12-07T15:52:32;2.50;83.00